createdAt,value
2023-05-14T00:00:22.210Z,77263.25
2023-05-14T00:02:48.823Z,77259.19
2023-05-14T00:05:15.572Z,77257.13
2023-05-14T00:07:42.028Z,77261.22
2023-05-14T00:10:08.823Z,77259.19
2023-05-14T00:12:35.278Z,77263.25
2023-05-14T00:15:01.844Z,77263.25
2023-05-14T00:17:28.256Z,77269.38
2023-05-14T00:19:54.695Z,77271.41
2023-05-14T00:22:21.055Z,77267.34
2023-05-14T00:24:47.429Z,77269.38
2023-05-14T00:27:14.670Z,77269.38
2023-05-14T00:29:41.085Z,77267.34
2023-05-14T00:32:07.958Z,77279.56
2023-05-14T00:34:35.039Z,77277.53
2023-05-14T00:37:01.798Z,77279.56
2023-05-14T00:39:28.169Z,77289.78
2023-05-14T00:41:54.566Z,77287.72
2023-05-14T00:44:21.066Z,77293.84
2023-05-14T00:46:47.605Z,77304.03
2023-05-14T00:49:14.504Z,77308.13
2023-05-14T00:51:42.265Z,77302.00
2023-05-14T00:54:09.269Z,77297.94
2023-05-14T00:56:36.035Z,77306.09
2023-05-14T00:59:02.585Z,77304.03
2023-05-14T01:01:29.054Z,77310.16
2023-05-14T01:03:57.880Z,77308.13
2023-05-14T01:06:34.936Z,77310.16
2023-05-14T01:09:26.361Z,77318.31
2023-05-14T01:11:59.821Z,77324.44
2023-05-14T01:14:42.988Z,77320.34
2023-05-14T01:17:12.227Z,77328.50
2023-05-14T01:19:41.815Z,77336.69
2023-05-14T01:22:08.396Z,77336.69
2023-05-14T01:24:34.856Z,77336.69
2023-05-14T01:27:12.667Z,77334.63
2023-05-14T01:29:42.994Z,77340.75
2023-05-14T01:32:10.825Z,77348.91
2023-05-14T01:34:39.418Z,77353.00
2023-05-14T01:37:07.011Z,77359.09
2023-05-14T01:39:37.762Z,77377.47
2023-05-14T01:42:05.311Z,77371.34
2023-05-14T01:44:32.621Z,77389.69
2023-05-14T01:46:59.949Z,77391.75
2023-05-14T01:49:26.329Z,77406.00
2023-05-14T01:51:52.815Z,77410.09
2023-05-14T01:54:19.201Z,77412.13
2023-05-14T01:56:45.684Z,77436.59
2023-05-14T01:59:12.173Z,77428.44
2023-05-14T02:01:38.617Z,77428.44
2023-05-14T02:04:05.105Z,77428.44
2023-05-14T02:06:32.147Z,77426.41
2023-05-14T02:08:59.019Z,77426.41
2023-05-14T02:11:26.165Z,77414.16
2023-05-14T02:13:52.659Z,77420.28
2023-05-14T02:16:19.328Z,77420.28
2023-05-14T02:18:45.863Z,77434.56
2023-05-14T02:21:12.537Z,77426.41
2023-05-14T02:23:41.856Z,77432.53
2023-05-14T02:26:12.276Z,77440.69
2023-05-14T02:28:38.680Z,77450.88
2023-05-14T02:31:05.133Z,77452.91
2023-05-14T02:33:31.645Z,77444.75
2023-05-14T02:35:58.380Z,77461.09
2023-05-14T02:38:26.112Z,77471.28
2023-05-14T02:40:52.611Z,77483.50
2023-05-14T02:43:18.966Z,77483.50
2023-05-14T02:45:45.611Z,77485.56
2023-05-14T02:48:12.002Z,77481.47
2023-05-14T02:50:38.506Z,77477.41
2023-05-14T02:53:04.894Z,77473.31
2023-05-14T02:55:31.428Z,77475.34
2023-05-14T02:57:57.825Z,77481.47
2023-05-14T03:00:24.413Z,77483.50
2023-05-14T03:02:51.493Z,77493.72
2023-05-14T03:05:18.460Z,77487.59
2023-05-14T03:07:44.835Z,77489.63
2023-05-14T03:10:11.269Z,77493.72
2023-05-14T03:12:37.720Z,77493.72
2023-05-14T03:15:04.363Z,77491.66
2023-05-14T03:17:30.798Z,77501.88
2023-05-14T03:19:57.207Z,77512.06
2023-05-14T03:22:23.589Z,77514.09
2023-05-14T03:24:49.976Z,77522.25
2023-05-14T03:27:16.401Z,77512.06
2023-05-14T03:29:42.758Z,77510.03
2023-05-14T03:32:09.144Z,77510.03
2023-05-14T03:34:35.961Z,77505.94
2023-05-14T03:37:02.369Z,77497.78
2023-05-14T03:39:28.775Z,77512.06
2023-05-14T03:41:57.068Z,77508.00
2023-05-14T03:44:24.589Z,77503.91
2023-05-14T03:46:50.987Z,77510.03
2023-05-14T03:49:17.532Z,77508.00
2023-05-14T03:51:44.217Z,77503.91
2023-05-14T03:54:10.722Z,77508.00
2023-05-14T03:56:37.541Z,77512.06
2023-05-14T03:59:03.933Z,77508.00
2023-05-14T04:01:31.740Z,77512.06
2023-05-14T04:03:58.267Z,77501.88
2023-05-14T04:06:24.785Z,77508.00
2023-05-14T04:08:51.160Z,77508.00
2023-05-14T04:11:17.532Z,77508.00
2023-05-14T04:13:43.928Z,77501.88
2023-05-14T04:16:10.602Z,77501.88
2023-05-14T04:18:37.100Z,77505.94
2023-05-14T04:21:03.601Z,77516.16
2023-05-14T04:23:31.720Z,77520.22
2023-05-14T04:25:58.750Z,77505.94
2023-05-14T04:28:25.152Z,77503.91
2023-05-14T04:30:52.374Z,77501.88
2023-05-14T04:33:18.732Z,77499.84
2023-05-14T04:35:45.826Z,77499.84
2023-05-14T04:38:14.024Z,77495.75
2023-05-14T04:40:43.596Z,77493.72
2023-05-14T04:43:10.568Z,77489.63
2023-05-14T04:45:37.005Z,77485.56
2023-05-14T04:48:04.442Z,77475.34
2023-05-14T04:50:31.225Z,77465.16
2023-05-14T04:52:57.644Z,77452.91
2023-05-14T04:55:24.235Z,77450.88
2023-05-14T04:57:50.728Z,77442.72
2023-05-14T05:00:17.504Z,77440.69
2023-05-14T05:02:43.921Z,77432.53
2023-05-14T05:05:10.478Z,77426.41
2023-05-14T05:07:36.856Z,77422.34
2023-05-14T05:10:03.483Z,77420.28
2023-05-14T05:12:30.181Z,77416.22
2023-05-14T05:14:57.354Z,77412.13
2023-05-14T05:17:24.560Z,77408.06
2023-05-14T05:19:51.072Z,77401.94
2023-05-14T05:22:17.501Z,77397.84
2023-05-14T05:24:43.881Z,77383.59
2023-05-14T05:27:10.332Z,77369.31
2023-05-14T05:29:36.897Z,77353.00
2023-05-14T05:32:03.709Z,77346.88
2023-05-14T05:34:30.417Z,77346.88
2023-05-14T05:36:56.855Z,77340.75
2023-05-14T05:39:23.234Z,77330.56
2023-05-14T05:41:49.623Z,77322.41
2023-05-14T05:44:15.995Z,77304.03
2023-05-14T05:46:42.501Z,77295.88
2023-05-14T05:49:08.917Z,77267.34
2023-05-14T05:51:35.331Z,77259.19
2023-05-14T05:54:01.742Z,77244.91
2023-05-14T05:56:28.109Z,77226.53
2023-05-14T05:58:54.499Z,77206.16
2023-05-14T06:01:20.871Z,77177.59
2023-05-14T06:03:48.709Z,77161.28
2023-05-14T06:06:15.580Z,77142.94
2023-05-14T06:08:42.082Z,77126.63
2023-05-14T06:11:08.850Z,77114.38
2023-05-14T06:13:35.305Z,77100.09
2023-05-14T06:16:01.743Z,77081.75
2023-05-14T06:18:28.193Z,77069.50
2023-05-14T06:20:56.592Z,77051.16
2023-05-14T06:23:23.006Z,77036.88
2023-05-14T06:25:50.862Z,77028.72
2023-05-14T06:28:17.539Z,77008.34
2023-05-14T06:30:43.931Z,76989.97
2023-05-14T06:33:10.551Z,76965.50
2023-05-14T06:35:37.137Z,76949.19
2023-05-14T06:38:03.598Z,76932.88
2023-05-14T06:40:30.010Z,76916.56
2023-05-14T06:42:56.405Z,76908.41
2023-05-14T06:45:22.759Z,76898.22
2023-05-14T06:47:49.202Z,76875.78
2023-05-14T06:50:15.658Z,76867.63
2023-05-14T06:52:43.482Z,76859.47
2023-05-14T06:55:10.281Z,76843.16
2023-05-14T06:57:38.024Z,76828.88
2023-05-14T07:00:06.512Z,76814.63
2023-05-14T07:02:32.901Z,76816.66
2023-05-14T07:04:59.300Z,76794.22
2023-05-14T07:07:25.673Z,76782.00
2023-05-14T07:09:52.095Z,76767.72
2023-05-14T07:12:18.497Z,76751.41
2023-05-14T07:14:44.888Z,76737.13
2023-05-14T07:17:11.431Z,76716.72
2023-05-14T07:19:37.867Z,76710.63
2023-05-14T07:22:04.470Z,76712.66
2023-05-14T07:24:30.873Z,76704.50
2023-05-14T07:26:57.623Z,76688.19
2023-05-14T07:29:25.363Z,76680.03
2023-05-14T07:31:51.959Z,76659.63
2023-05-14T07:34:19.247Z,76659.63
2023-05-14T07:36:46.137Z,76651.47
2023-05-14T07:39:12.619Z,76637.22
2023-05-14T07:41:38.972Z,76624.97
2023-05-14T07:44:05.715Z,76614.78
2023-05-14T07:46:32.114Z,76608.66
2023-05-14T07:48:58.488Z,76602.53
2023-05-14T07:51:28.088Z,76596.44
2023-05-14T07:53:55.629Z,76598.47
2023-05-14T07:56:23.008Z,76586.22
2023-05-14T07:58:50.574Z,76569.91
2023-05-14T08:01:17.372Z,76553.59
2023-05-14T08:03:43.855Z,76551.56
2023-05-14T08:06:10.314Z,76553.59
2023-05-14T08:08:36.726Z,76543.41
2023-05-14T08:11:03.722Z,76541.38
2023-05-14T08:13:30.201Z,76531.19
2023-05-14T08:15:56.589Z,76537.28
2023-05-14T08:18:22.984Z,76502.63
2023-05-14T08:20:49.422Z,76502.63
2023-05-14T08:23:15.823Z,76496.50
2023-05-14T08:25:42.190Z,76492.44
2023-05-14T08:28:08.638Z,76480.19
2023-05-14T08:30:35.097Z,76461.84
2023-05-14T08:33:01.580Z,76451.66
2023-05-14T08:35:28.028Z,76423.13
2023-05-14T08:37:54.544Z,76423.13
2023-05-14T08:40:21.287Z,76400.69
2023-05-14T08:42:48.717Z,76384.38
2023-05-14T08:45:19.306Z,76382.34
2023-05-14T08:47:52.673Z,76372.13
2023-05-14T08:50:23.203Z,76359.91
2023-05-14T08:52:50.464Z,76366.03
2023-05-14T08:55:16.848Z,76361.94
2023-05-14T08:57:43.284Z,76359.91
2023-05-14T09:00:13.027Z,76337.47
2023-05-14T09:02:40.636Z,76331.34
2023-05-14T09:05:09.113Z,76302.81
2023-05-14T09:07:36.125Z,76296.69
2023-05-14T09:10:03.797Z,76298.72
2023-05-14T09:12:30.398Z,76290.59
2023-05-14T09:14:56.941Z,76276.31
2023-05-14T09:17:26.016Z,76266.13
2023-05-14T09:19:53.129Z,76251.84
2023-05-14T09:22:20.173Z,76251.84
2023-05-14T09:24:46.619Z,76233.50
2023-05-14T09:27:22.092Z,76223.28
2023-05-14T09:29:48.592Z,76219.22
2023-05-14T09:32:14.989Z,76227.38
2023-05-14T09:34:42.158Z,76223.28
2023-05-14T09:37:09.666Z,76227.38
2023-05-14T09:39:37.477Z,76223.28
2023-05-14T09:42:04.670Z,76213.09
2023-05-14T09:44:31.806Z,76196.78
2023-05-14T09:46:58.204Z,76207.00
2023-05-14T09:49:24.648Z,76207.00
2023-05-14T09:51:51.387Z,76211.06
2023-05-14T09:54:17.844Z,76198.81
2023-05-14T09:56:44.445Z,76202.91
2023-05-14T09:59:11.042Z,76209.03
2023-05-14T10:01:37.886Z,76204.94
2023-05-14T10:04:07.183Z,76178.44
2023-05-14T10:06:37.287Z,76166.22
2023-05-14T10:09:12.574Z,76164.16
2023-05-14T10:11:43.657Z,76166.22
2023-05-14T10:14:26.603Z,76164.16
2023-05-14T10:16:53.767Z,76147.84
2023-05-14T10:19:23.459Z,76153.97
2023-05-14T10:21:57.113Z,76160.09
2023-05-14T10:24:24.899Z,76178.44
2023-05-14T10:26:51.893Z,76174.38
2023-05-14T10:29:18.253Z,76162.13
2023-05-14T10:31:55.333Z,76160.09
2023-05-14T10:34:32.656Z,76156.00
2023-05-14T10:37:01.321Z,76151.94
2023-05-14T10:39:52.100Z,76145.81
2023-05-14T10:42:21.972Z,76145.81
2023-05-14T10:44:58.395Z,76143.78
2023-05-14T10:47:26.527Z,76129.50
2023-05-14T10:49:55.719Z,76121.34
2023-05-14T10:52:23.064Z,76123.41
2023-05-14T10:55:03.380Z,76113.19
2023-05-14T10:57:31.968Z,76109.13
2023-05-14T11:00:00.444Z,76100.97
2023-05-14T11:02:34.651Z,76098.94
2023-05-14T11:05:10.500Z,76090.78
2023-05-14T11:07:45.006Z,76094.84
2023-05-14T11:10:16.827Z,76086.69
2023-05-14T11:12:45.544Z,76090.78
2023-05-14T11:15:14.884Z,76086.69
2023-05-14T11:17:42.940Z,76074.47
2023-05-14T11:20:10.991Z,76074.47
2023-05-14T11:22:38.746Z,76062.22
2023-05-14T11:25:06.515Z,76064.25
2023-05-14T11:27:38.649Z,76074.47
2023-05-14T11:30:06.540Z,76052.03
2023-05-14T11:32:33.186Z,76056.13
2023-05-14T11:34:59.590Z,76031.66
2023-05-14T11:37:25.987Z,76023.50
2023-05-14T11:39:54.270Z,76025.53
2023-05-14T11:42:21.626Z,76015.34
2023-05-14T11:44:50.085Z,76013.28
2023-05-14T11:47:18.384Z,76001.06
2023-05-14T11:49:45.420Z,75990.88
2023-05-14T11:52:15.761Z,75994.94
2023-05-14T11:54:43.969Z,75999.03
2023-05-14T11:57:13.387Z,76019.41
2023-05-14T11:59:40.445Z,76027.56
2023-05-14T12:02:14.517Z,76019.41
2023-05-14T12:04:42.325Z,76019.41
2023-05-14T12:07:11.376Z,76013.28
2023-05-14T12:09:43.639Z,75999.03
2023-05-14T12:12:12.667Z,75999.03
2023-05-14T12:14:42.387Z,75982.72
2023-05-14T12:17:21.649Z,75974.56
2023-05-14T12:19:50.511Z,75972.53
2023-05-14T12:22:19.538Z,75958.25
2023-05-14T12:25:00.102Z,75939.91
2023-05-14T12:27:28.017Z,75933.78
2023-05-14T12:30:19.006Z,75950.09
2023-05-14T12:32:47.039Z,75960.28
2023-05-14T12:35:13.404Z,75972.53
2023-05-14T12:37:39.887Z,75982.72
2023-05-14T12:40:09.266Z,75982.72
2023-05-14T12:42:36.338Z,75988.84
2023-05-14T12:45:05.476Z,75986.78
2023-05-14T12:47:32.289Z,75990.88
2023-05-14T12:49:58.635Z,75988.84
2023-05-14T12:52:36.660Z,75974.56
2023-05-14T12:55:06.396Z,75968.44
2023-05-14T12:57:34.935Z,75950.09
2023-05-14T13:00:01.619Z,75939.91
2023-05-14T13:02:28.081Z,75933.78
2023-05-14T13:04:54.442Z,75937.88
2023-05-14T13:07:21.408Z,75925.63
2023-05-14T13:09:47.751Z,75917.47
2023-05-14T13:12:14.132Z,75907.28
2023-05-14T13:14:40.520Z,75911.38
2023-05-14T13:17:08.021Z,75915.44
2023-05-14T13:19:34.512Z,75923.59
2023-05-14T13:22:00.851Z,75915.44
2023-05-14T13:24:27.240Z,75911.38
2023-05-14T13:26:53.586Z,75917.47
2023-05-14T13:29:19.928Z,75919.50
2023-05-14T13:31:46.410Z,75921.56
2023-05-14T13:34:13.086Z,75931.75
2023-05-14T13:36:39.723Z,75929.72
2023-05-14T13:39:06.985Z,75935.81
2023-05-14T13:41:37.675Z,75939.91
2023-05-14T13:44:04.701Z,75929.72
2023-05-14T13:46:31.147Z,75929.72
2023-05-14T13:48:57.483Z,75923.59
2023-05-14T13:51:23.841Z,75909.31
2023-05-14T13:53:50.181Z,75905.25
2023-05-14T13:56:16.564Z,75890.97
2023-05-14T13:58:42.998Z,75903.22
2023-05-14T14:01:09.401Z,75905.25
2023-05-14T14:03:35.756Z,75901.16
2023-05-14T14:06:02.128Z,75897.09
2023-05-14T14:08:28.525Z,75882.81
2023-05-14T14:10:55.336Z,75878.75
2023-05-14T14:13:22.677Z,75874.66
2023-05-14T14:15:49.868Z,75874.66
2023-05-14T14:18:16.430Z,75870.59
2023-05-14T14:20:42.864Z,75870.59
2023-05-14T14:23:09.226Z,75872.63
2023-05-14T14:25:35.635Z,75868.56
2023-05-14T14:28:02.023Z,75872.63
2023-05-14T14:30:28.430Z,75868.56
2023-05-14T14:32:54.921Z,75878.75
2023-05-14T14:35:21.555Z,75876.69
2023-05-14T14:37:53.537Z,75886.91
2023-05-14T14:40:20.127Z,75886.91
2023-05-14T14:42:46.527Z,75878.75
2023-05-14T14:45:12.919Z,75880.78
2023-05-14T14:47:43.896Z,75870.59
2023-05-14T14:50:10.939Z,75854.28
2023-05-14T14:52:37.301Z,75846.13
2023-05-14T14:55:03.986Z,75844.09
2023-05-14T14:57:30.732Z,75844.09
2023-05-14T14:59:57.159Z,75842.03
2023-05-14T15:02:23.696Z,75856.31
2023-05-14T15:04:50.787Z,75866.50
2023-05-14T15:07:18.508Z,75866.50
2023-05-14T15:09:44.863Z,75872.63
2023-05-14T15:12:12.348Z,75878.75
2023-05-14T15:14:38.798Z,75886.91
2023-05-14T15:17:05.318Z,75880.78
2023-05-14T15:19:32.247Z,75886.91
2023-05-14T15:21:58.756Z,75886.91
2023-05-14T15:24:26.092Z,75880.78
2023-05-14T15:26:53.534Z,75876.69
2023-05-14T15:29:20.397Z,75880.78
2023-05-14T15:31:46.949Z,75872.63
2023-05-14T15:34:13.365Z,75880.78
2023-05-14T15:36:39.815Z,75876.69
2023-05-14T15:39:06.236Z,75888.94
2023-05-14T15:41:34.280Z,75897.09
2023-05-14T15:44:00.695Z,75888.94
2023-05-14T15:46:27.313Z,75880.78
2023-05-14T15:48:53.776Z,75878.75
2023-05-14T15:51:20.193Z,75878.75
2023-05-14T15:53:46.586Z,75874.66
2023-05-14T15:56:13.079Z,75870.59
2023-05-14T15:58:39.417Z,75872.63
2023-05-14T16:01:05.814Z,75872.63
2023-05-14T16:03:32.279Z,75866.50
2023-05-14T16:05:58.805Z,75872.63
2023-05-14T16:08:25.233Z,75872.63
2023-05-14T16:10:51.724Z,75868.56
2023-05-14T16:13:19.298Z,75866.50
2023-05-14T16:15:46.690Z,75868.56
2023-05-14T16:18:13.070Z,75866.50
2023-05-14T16:20:39.547Z,75872.63
2023-05-14T16:23:05.958Z,75862.44
2023-05-14T16:25:32.555Z,75868.56
2023-05-14T16:27:58.978Z,75872.63
2023-05-14T16:30:25.575Z,75874.66
2023-05-14T16:32:52.139Z,75880.78
2023-05-14T16:35:18.471Z,75876.69
2023-05-14T16:37:44.923Z,75884.84
2023-05-14T16:40:11.998Z,75884.84
2023-05-14T16:42:38.621Z,75899.13
2023-05-14T16:45:05.459Z,75903.22
2023-05-14T16:47:31.900Z,75913.41
2023-05-14T16:49:58.437Z,75911.38
2023-05-14T16:52:24.852Z,75911.38
2023-05-14T16:54:51.169Z,75917.47
2023-05-14T16:57:17.572Z,75917.47
2023-05-14T16:59:43.952Z,75921.56
2023-05-14T17:02:10.283Z,75919.50
2023-05-14T17:04:41.839Z,75927.66
2023-05-14T17:07:08.403Z,75935.81
2023-05-14T17:09:34.802Z,75933.78
2023-05-14T17:12:01.252Z,75933.78
2023-05-14T17:14:27.593Z,75935.81
2023-05-14T17:16:54.219Z,75937.88
2023-05-14T17:19:20.622Z,75939.91
2023-05-14T17:21:46.988Z,75948.06
2023-05-14T17:24:13.309Z,75950.09
2023-05-14T17:26:39.733Z,75954.19
2023-05-14T17:29:06.138Z,75958.25
2023-05-14T17:31:32.595Z,75952.13
2023-05-14T17:33:59.032Z,75958.25
2023-05-14T17:36:25.751Z,75960.28
2023-05-14T17:38:52.427Z,75966.41
2023-05-14T17:41:18.787Z,75966.41
2023-05-14T17:43:45.202Z,75972.53
2023-05-14T17:46:11.564Z,75972.53
2023-05-14T17:48:37.905Z,75980.69
2023-05-14T17:51:04.374Z,75982.72
2023-05-14T17:53:31.082Z,75980.69
2023-05-14T17:55:57.461Z,75990.88
2023-05-14T17:58:24.191Z,75997.00
2023-05-14T18:00:50.533Z,76007.19
2023-05-14T18:03:17.430Z,76007.19
2023-05-14T18:05:43.875Z,76011.25
2023-05-14T18:08:10.241Z,76019.41
2023-05-14T18:10:36.699Z,76025.53
2023-05-14T18:13:03.326Z,76027.56
2023-05-14T18:15:31.341Z,76027.56
2023-05-14T18:17:57.826Z,76029.59
2023-05-14T18:20:24.173Z,76043.88
2023-05-14T18:22:51.308Z,76045.91
2023-05-14T18:25:17.892Z,76043.88
2023-05-14T18:27:45.213Z,76052.03
2023-05-14T18:30:14.328Z,76062.22
2023-05-14T18:32:42.238Z,76062.22
2023-05-14T18:35:09.178Z,76074.47
2023-05-14T18:37:35.968Z,76084.66
2023-05-14T18:40:04.075Z,76092.81
2023-05-14T18:42:30.601Z,76103.00
2023-05-14T18:44:57.095Z,76115.25
2023-05-14T18:47:23.462Z,76127.47
2023-05-14T18:49:51.509Z,76139.69
2023-05-14T18:52:17.850Z,76137.66
2023-05-14T18:54:44.178Z,76135.63
2023-05-14T18:57:11.059Z,76135.63
2023-05-14T18:59:37.492Z,76129.50
2023-05-14T19:02:03.980Z,76141.75
2023-05-14T19:04:33.294Z,76147.84
2023-05-14T19:07:00.214Z,76168.25
2023-05-14T19:09:27.035Z,76194.75
2023-05-14T19:11:53.506Z,76190.69
2023-05-14T19:14:19.847Z,76196.78
2023-05-14T19:16:46.344Z,76200.88
2023-05-14T19:19:13.112Z,76198.81
2023-05-14T19:21:39.563Z,76204.94
2023-05-14T19:24:06.016Z,76213.09
2023-05-14T19:26:32.498Z,76211.06
2023-05-14T19:28:58.997Z,76219.22
2023-05-14T19:31:26.352Z,76223.28
2023-05-14T19:33:53.247Z,76227.38
2023-05-14T19:36:20.554Z,76231.44
2023-05-14T19:38:47.632Z,76233.50
2023-05-14T19:41:14.488Z,76239.59
2023-05-14T19:43:40.922Z,76247.75
2023-05-14T19:46:07.516Z,76251.84
2023-05-14T19:48:33.934Z,76264.06
2023-05-14T19:51:00.340Z,76274.28
2023-05-14T19:53:29.730Z,76284.47
2023-05-14T19:55:56.960Z,76296.69
2023-05-14T19:58:23.906Z,76306.88
2023-05-14T20:00:56.618Z,76313.00
2023-05-14T20:03:25.930Z,76317.09
2023-05-14T20:05:53.279Z,76323.19
2023-05-14T20:08:20.740Z,76337.47
2023-05-14T20:10:48.285Z,76337.47
2023-05-14T20:13:14.980Z,76345.63
2023-05-14T20:15:41.652Z,76357.88
2023-05-14T20:18:08.273Z,76363.97
2023-05-14T20:20:34.815Z,76372.13
2023-05-14T20:23:01.273Z,76374.19
2023-05-14T20:25:28.635Z,76376.22
2023-05-14T20:27:55.356Z,76388.44
2023-05-14T20:30:21.707Z,76386.41
2023-05-14T20:32:48.105Z,76396.59
2023-05-14T20:35:14.565Z,76402.72
2023-05-14T20:37:41.279Z,76402.72
2023-05-14T20:40:10.359Z,76404.75
2023-05-14T20:42:36.882Z,76414.94
2023-05-14T20:45:03.776Z,76417.00
2023-05-14T20:47:33.022Z,76427.19
2023-05-14T20:50:00.359Z,76447.56
2023-05-14T20:52:27.120Z,76449.63
2023-05-14T20:54:53.473Z,76451.66
2023-05-14T20:57:19.910Z,76449.63
2023-05-14T20:59:46.572Z,76449.63
2023-05-14T21:02:13.050Z,76457.78
2023-05-14T21:04:39.609Z,76457.78
2023-05-14T21:07:06.761Z,76459.81
2023-05-14T21:09:33.250Z,76457.78
2023-05-14T21:11:59.713Z,76457.78
2023-05-14T21:14:26.076Z,76459.81
2023-05-14T21:16:52.647Z,76465.94
2023-05-14T21:19:19.101Z,76470.00
2023-05-14T21:21:47.156Z,76482.25
2023-05-14T21:24:13.517Z,76494.47
2023-05-14T21:26:41.252Z,76498.56
2023-05-14T21:29:07.640Z,76496.50
2023-05-14T21:31:34.106Z,76504.66
2023-05-14T21:34:00.566Z,76504.66
2023-05-14T21:36:27.109Z,76506.72
2023-05-14T21:38:53.764Z,76512.81
2023-05-14T21:41:20.997Z,76516.91
2023-05-14T21:43:47.452Z,76520.97
2023-05-14T21:46:13.907Z,76516.91
2023-05-14T21:48:40.402Z,76516.91
2023-05-14T21:51:06.846Z,76529.13
2023-05-14T21:53:33.248Z,76523.03
2023-05-14T21:55:59.594Z,76518.94
2023-05-14T21:58:27.003Z,76527.09
2023-05-14T22:00:53.419Z,76525.06
2023-05-14T22:03:19.920Z,76527.09
2023-05-14T22:05:46.357Z,76531.19
2023-05-14T22:08:12.714Z,76533.22
2023-05-14T22:10:39.068Z,76539.34
2023-05-14T22:13:05.455Z,76551.56
2023-05-14T22:15:31.812Z,76555.66
2023-05-14T22:17:58.236Z,76561.75
2023-05-14T22:20:24.638Z,76563.81
2023-05-14T22:22:51.445Z,76561.75
2023-05-14T22:25:17.810Z,76569.91
2023-05-14T22:27:44.142Z,76567.88
2023-05-14T22:30:11.002Z,76576.03
2023-05-14T22:32:37.448Z,76574.00
2023-05-14T22:35:04.104Z,76578.06
2023-05-14T22:37:30.675Z,76582.16
2023-05-14T22:39:57.060Z,76600.50
2023-05-14T22:42:23.413Z,76604.59
2023-05-14T22:44:49.715Z,76598.47
2023-05-14T22:47:16.322Z,76602.53
2023-05-14T22:49:43.522Z,76600.50
2023-05-14T22:52:10.099Z,76600.50
2023-05-14T22:54:36.469Z,76608.66
2023-05-14T22:57:03.666Z,76608.66
2023-05-14T22:59:30.006Z,76614.78
2023-05-14T23:01:56.415Z,76620.91
2023-05-14T23:04:22.796Z,76631.09
2023-05-14T23:06:49.302Z,76629.06
2023-05-14T23:09:15.671Z,76622.94
2023-05-14T23:11:42.042Z,76612.75
2023-05-14T23:14:08.886Z,76594.38
2023-05-14T23:16:35.558Z,76600.50
2023-05-14T23:19:02.080Z,76600.50
2023-05-14T23:21:28.475Z,76608.66
2023-05-14T23:23:54.845Z,76618.84
2023-05-14T23:26:21.640Z,76616.81
2023-05-14T23:28:47.997Z,76614.78
2023-05-14T23:31:14.373Z,76616.81
2023-05-14T23:33:40.873Z,76620.91
2023-05-14T23:36:07.935Z,76616.81
2023-05-14T23:38:34.427Z,76610.69
2023-05-14T23:41:00.772Z,76616.81
2023-05-14T23:43:27.173Z,76604.59
2023-05-14T23:45:53.619Z,76598.47
2023-05-14T23:48:20.009Z,76604.59
2023-05-14T23:50:46.330Z,76602.53
2023-05-14T23:53:12.653Z,76606.63
2023-05-14T23:55:39.261Z,76614.78
2023-05-14T23:58:06.171Z,76608.66
